21:44
Airports
History
Links
Donate
Help keep this website running!
PayPal
Bitcoin
This page is community maintained. The information is intended for PC simulator navigation or reference.
Always use approved charts for navigation.
5OR2
Bushnell
Bushnell (5OR2)
Sheridan, Oregon, United States (97378)
4
Lat/Lng:45° 6' 11.41" N / 123° 25' 29.38" W
45.10317 / -123.424829
Elevation:220'ft / 67mMSL
ID / ICAO:5OR2
Runways:1
Longest:07-25
Grass 435m / 1,426ft
Nearby Weather20:53 GMT 2018-02-20
Nearby weather at KMMV, Mc Minnville Muni located 15.4 nautical miles from 5OR2
Altimeter: 30.16
Visibility: 10.0 statute miles
Wind: 8 knots (from 190°)
Temp: 4°c / 39°f
Humidity: 80.8%

METAR: KMMV 202053Z AUTO 19008KT 10SM OVC019 04/01 A3016 RMK AO2 SLP212 60000 T00390006 58008

(Powered by phpweather)
Nearby VORs <50NM
Nearby NDBs
Runway 07 / 25
Dimensions:434.5 x 15.2m 1426' x 50'ft
Surface:Grass
Runway 07 [A]Runway 25 [B]
Heading:088°TH 268°TH
Lat:
Lng:
45° 6' 11.29"N
123° 25' 39.53"W
45° 6' 11.54"N
123° 25' 19.24"W
User Notes and Comments
45° 6' 11.41" N / 123° 25' 29.38" W
Distance To
Airport ID:
Nearby Airports
4 Sheridan 0.3 NM
44S E 98°
(R) Mach-o Acres 7.1 NM
98OR NNE 21°
(R) Vineyard 10.0 NM
OR95 ESE 111°
(R) Plum Valley 13.2 NM
64OR ESE 111°
4 Vons Airstrip 14.4 NM
OR42 NNE 24°
(U) Mc Minnville Muni 15.4 NM
KMMV ( WX ) ENE 65°
(R) Lafayette Airstrip 17.4 NM
OR90 NE 55°
VFR Chart
Flight Planning at SkyVector.com